Time;durP1;ratioP1;P1;durP2;ratioP2;P2;SDS_P1;SDS_P2;PMS_P1;PMS_P2;Temp;Humidity;BMP_temperature;BMP_pressure;BME280_temperature;BME280_humidity;BME280_pressure;Samples;Min_cycle;Max_cycle;Signal;HPM_P1;HPM_P2
2021/03/10 00:00:08;;;;;;;6.00;5.50;;;7.70;99.90;;;;;;4977024;28;20193;-78
2021/03/10 00:02:33;;;;;;;7.67;5.43;;;7.80;99.90;;;;;;4977063;28;20197;-79
2021/03/10 00:04:59;;;;;;;5.53;4.80;;;7.80;99.90;;;;;;4979690;28;20881;-79
2021/03/10 00:07:25;;;;;;;9.97;5.37;;;7.80;99.90;;;;;;4960751;28;20197;-77
2021/03/10 00:09:51;;;;;;;7.30;5.70;;;7.80;99.90;;;;;;4978409;28;20289;-78
2021/03/10 00:12:17;;;;;;;7.70;5.70;;;7.80;99.90;;;;;;4962992;28;20859;-78
2021/03/10 00:14:43;;;;;;;6.00;5.47;;;7.70;99.90;;;;;;4979388;28;20464;-78
2021/03/10 00:17:08;;;;;;;6.63;5.30;;;7.70;99.90;;;;;;4978379;28;20204;-78
2021/03/10 00:19:34;;;;;;;7.13;5.40;;;7.70;99.90;;;;;;4977790;28;20196;-79
2021/03/10 00:21:59;;;;;;;7.93;5.20;;;7.70;99.90;;;;;;4960554;28;20185;-78
2021/03/10 00:24:25;;;;;;;5.77;4.97;;;7.70;99.90;;;;;;4979238;28;20332;-78
2021/03/10 00:26:50;;;;;;;6.57;5.87;;;7.60;99.90;;;;;;4971001;28;20726;-78
2021/03/10 00:29:16;;;;;;;5.53;5.03;;;7.50;99.90;;;;;;4975835;28;20220;-78
2021/03/10 00:31:41;;;;;;;6.57;5.50;;;7.50;99.90;;;;;;4979266;28;20257;-79
2021/03/10 00:34:07;;;;;;;6.87;6.27;;;7.50;99.90;;;;;;4962202;28;20178;-79
2021/03/10 00:36:32;;;;;;;6.70;5.33;;;7.50;99.90;;;;;;4983819;28;20197;-79
2021/03/10 00:38:58;;;;;;;6.70;5.20;;;7.50;99.90;;;;;;4982112;28;20185;-78
2021/03/10 00:41:23;;;;;;;7.90;5.40;;;7.50;99.90;;;;;;4983049;28;20217;-78
2021/03/10 00:43:49;;;;;;;6.70;5.27;;;7.50;99.90;;;;;;4966267;28;20210;-79
2021/03/10 00:46:15;;;;;;;6.37;5.77;;;7.50;99.90;;;;;;4981360;28;20193;-77
2021/03/10 00:48:40;;;;;;;6.00;5.43;;;7.60;99.90;;;;;;4965671;28;20545;-79
2021/03/10 00:51:06;;;;;;;6.57;5.67;;;7.30;99.90;;;;;;4964892;28;20305;-78
2021/03/10 00:53:31;;;;;;;5.10;4.60;;;7.40;99.90;;;;;;4982269;28;20643;-79
2021/03/10 00:55:57;;;;;;;6.40;5.80;;;7.30;99.90;;;;;;4981921;28;20248;-77
2021/03/10 00:58:22;;;;;;;7.00;5.80;;;7.30;99.90;;;;;;4982909;28;20181;-79
2021/03/10 01:00:48;;;;;;;7.90;6.03;;;7.30;99.90;;;;;;4983164;28;20713;-78
2021/03/10 01:03:14;;;;;;;5.30;4.80;;;7.30;99.90;;;;;;4982795;28;20636;-79
2021/03/10 01:05:39;;;;;;;6.30;5.63;;;7.20;99.90;;;;;;4983639;28;20177;-79
2021/03/10 01:08:06;;;;;;;9.73;5.90;;;7.30;99.90;;;;;;4966490;28;20460;-79
2021/03/10 01:10:31;;;;;;;5.63;5.03;;;7.40;99.90;;;;;;4983430;28;20216;-79
2021/03/10 01:12:57;;;;;;;7.03;6.30;;;7.50;99.90;;;;;;4982425;28;22463;-79
2021/03/10 01:15:22;;;;;;;5.77;5.27;;;7.40;99.90;;;;;;4967033;28;20189;-78
2021/03/10 01:17:48;;;;;;;6.67;5.93;;;7.20;99.90;;;;;;4966597;28;20194;-79
2021/03/10 01:20:19;;;;;;;7.60;5.60;;;7.20;99.90;;;;;;4980751;28;20205;-79
2021/03/10 01:22:45;;;;;;;5.23;4.83;;;7.20;99.90;;;;;;4964139;28;20189;-79
2021/03/10 01:25:12;;;;;;;7.60;6.80;;;7.20;99.90;;;;;;4964450;28;20861;-79
2021/03/10 01:27:38;;;;;;;7.40;6.00;;;7.20;99.90;;;;;;4963075;28;20476;-78
2021/03/10 01:30:09;;;;;;;6.53;5.00;;;7.20;99.90;;;;;;4962342;28;20905;-79
2021/03/10 01:32:35;;;;;;;5.20;4.70;;;7.10;99.90;;;;;;4982791;28;20425;-78
2021/03/10 01:35:01;;;;;;;5.17;4.77;;;7.10;99.90;;;;;;4965073;28;20437;-79
2021/03/10 01:37:26;;;;;;;5.50;5.00;;;7.10;99.90;;;;;;4962183;28;20460;-79
2021/03/10 01:39:52;;;;;;;5.87;5.03;;;7.10;99.90;;;;;;4963578;28;20467;-79
2021/03/10 01:42:17;;;;;;;5.60;4.30;;;7.00;99.90;;;;;;4962115;28;20190;-77
2021/03/10 01:44:43;;;;;;;6.73;4.50;;;7.00;99.90;;;;;;4973754;28;20193;-78
2021/03/10 01:47:09;;;;;;;5.63;4.30;;;6.90;99.90;;;;;;4975552;28;20201;-78
2021/03/10 01:49:35;;;;;;;6.70;4.87;;;6.90;99.90;;;;;;4975583;28;20197;-79
2021/03/10 01:52:01;;;;;;;7.97;4.43;;;6.70;99.90;;;;;;4982135;28;20185;-79
2021/03/10 01:54:27;;;;;;;5.20;4.70;;;6.60;99.90;;;;;;4980822;28;20461;-79
2021/03/10 01:56:52;;;;;;;9.23;5.57;;;6.60;99.90;;;;;;4980139;28;20208;-79
2021/03/10 01:59:18;;;;;;;5.50;5.00;;;6.50;99.90;;;;;;4963840;28;20224;-79
2021/03/10 02:01:43;;;;;;;7.80;5.27;;;6.60;99.90;;;;;;4974337;28;20196;-78
2021/03/10 02:04:10;;;;;;;8.90;5.23;;;6.70;99.90;;;;;;4974443;28;20598;-77
2021/03/10 02:07:13;;;;;;;11.60;5.30;;;6.70;99.90;;;;;;4974616;28;20197;-77
2021/03/10 02:10:03;;;;;;;8.03;5.30;;;6.70;99.90;;;;;;4971117;28;20444;-77
2021/03/10 02:12:58;;;;;;;6.53;5.07;;;6.60;99.90;;;;;;4975138;28;20942;-77
2021/03/10 02:15:50;;;;;;;7.23;5.33;;;6.50;99.90;;;;;;4974342;28;20444;-77
2021/03/10 02:18:25;;;;;;;6.87;5.27;;;6.50;99.90;;;;;;4975261;28;20515;-77
2021/03/10 02:20:56;;;;;;;6.27;5.37;;;6.50;99.90;;;;;;4975188;28;20436;-78
2021/03/10 02:23:54;;;;;;;7.70;6.67;;;6.70;99.90;;;;;;4976956;28;20429;-78
2021/03/10 02:26:33;;;;;;;12.70;6.20;;;6.80;99.90;;;;;;4976868;28;20555;-78
2021/03/10 02:29:06;;;;;;;8.83;5.93;;;6.90;99.90;;;;;;4976028;28;21031;-77
2021/03/10 02:31:38;;;;;;;6.07;5.20;;;6.90;99.90;;;;;;4959432;28;20852;-78
2021/03/10 02:34:06;;;;;;;8.30;6.07;;;7.00;99.90;;;;;;4977631;28;20421;-78
2021/03/10 02:36:33;;;;;;;7.00;6.30;;;7.00;99.90;;;;;;4977248;28;20456;-78
2021/03/10 02:39:01;;;;;;;9.87;6.20;;;7.00;99.90;;;;;;4975369;28;20433;-78
2021/03/10 02:41:28;;;;;;;7.80;5.53;;;7.10;99.90;;;;;;4976011;28;20837;-78
2021/03/10 02:43:55;;;;;;;7.43;6.27;;;7.10;99.90;;;;;;4959323;28;20429;-78
2021/03/10 02:46:21;;;;;;;6.93;6.23;;;7.10;99.90;;;;;;4958046;28;20460;-77
2021/03/10 02:48:47;;;;;;;11.97;6.87;;;7.20;99.90;;;;;;4974890;28;20432;-77
2021/03/10 02:51:15;;;;;;;8.67;6.77;;;7.20;99.90;;;;;;4956342;28;20464;-76
2021/03/10 02:53:42;;;;;;;6.87;5.77;;;7.20;99.90;;;;;;4952580;28;20459;-77
2021/03/10 02:56:11;;;;;;;7.67;6.07;;;7.20;99.90;;;;;;4972572;28;20504;-77
2021/03/10 02:58:40;;;;;;;6.47;5.73;;;7.20;99.90;;;;;;4971812;28;20433;-77
2021/03/10 03:01:07;;;;;;;6.73;6.03;;;7.10;99.90;;;;;;4974487;28;20945;-78
2021/03/10 03:03:33;;;;;;;7.40;6.60;;;7.10;99.90;;;;;;4958861;28;20521;-78
2021/03/10 03:05:59;;;;;;;9.67;7.13;;;6.80;99.90;;;;;;4974282;28;20528;-77
2021/03/10 03:08:25;;;;;;;10.20;7.03;;;6.80;99.90;;;;;;4971918;28;20205;-77
2021/03/10 03:10:52;;;;;;;8.93;7.83;;;7.00;99.90;;;;;;4973399;28;20201;-78
2021/03/10 03:13:20;;;;;;;9.20;7.33;;;6.70;99.90;;;;;;4959106;28;20516;-78
2021/03/10 03:15:53;;;;;;;12.03;9.13;;;6.60;99.90;;;;;;4975815;28;20475;-78
2021/03/10 03:18:20;;;;;;;9.87;8.10;;;6.40;99.90;;;;;;4975609;28;20531;-78
2021/03/10 03:20:45;;;;;;;14.40;9.43;;;6.50;99.90;;;;;;4957265;28;20433;-77
2021/03/10 03:23:11;;;;;;;14.00;9.07;;;6.40;99.90;;;;;;4971083;28;20462;-77
2021/03/10 03:25:42;;;;;;;17.93;9.03;;;6.50;99.90;;;;;;4972793;28;20178;-77
2021/03/10 03:28:12;;;;;;;15.63;10.23;;;6.60;99.90;;;;;;4973326;28;20949;-77
2021/03/10 03:30:38;;;;;;;16.20;11.07;;;6.50;99.90;;;;;;4978752;28;20970;-79
2021/03/10 03:33:08;;;;;;;20.60;11.10;;;6.60;99.90;;;;;;4963265;28;20421;-79
2021/03/10 03:35:34;;;;;;;16.17;11.37;;;6.60;99.90;;;;;;4963603;28;20433;-79
2021/03/10 03:38:00;;;;;;;14.50;11.27;;;6.60;99.90;;;;;;4978963;28;20508;-79
2021/03/10 03:40:26;;;;;;;14.77;11.93;;;6.70;99.90;;;;;;4978670;28;20485;-78
2021/03/10 03:42:52;;;;;;;19.53;12.60;;;6.50;99.90;;;;;;4979771;28;20497;-79
2021/03/10 03:45:20;;;;;;;25.27;14.80;;;6.60;99.90;;;;;;4974291;28;20189;-77
2021/03/10 03:47:56;;;;;;;18.67;13.40;;;6.60;99.90;;;;;;4972153;28;20535;-77
2021/03/10 03:50:25;;;;;;;21.37;13.30;;;6.60;99.90;;;;;;4955937;28;20499;-77
2021/03/10 03:52:51;;;;;;;17.63;14.43;;;6.60;99.90;;;;;;4977400;28;20428;-78
2021/03/10 03:55:17;;;;;;;17.70;12.53;;;6.70;99.90;;;;;;4979106;28;20425;-79
2021/03/10 03:57:43;;;;;;;18.27;13.60;;;6.60;99.90;;;;;;4978641;28;21052;-78
2021/03/10 04:00:16;;;;;;;18.63;12.73;;;6.60;99.90;;;;;;4960947;28;20260;-78
2021/03/10 04:02:41;;;;;;;24.30;13.53;;;6.50;99.90;;;;;;4974174;28;20421;-77
2021/03/10 04:05:08;;;;;;;22.90;12.50;;;6.50;99.90;;;;;;4958395;28;20487;-78
2021/03/10 04:07:45;;;;;;;18.87;13.70;;;6.50;99.90;;;;;;4974982;28;20232;-78
2021/03/10 04:10:11;;;;;;;19.13;14.10;;;6.50;99.90;;;;;;4973383;28;20508;-77
2021/03/10 04:12:36;;;;;;;18.27;14.77;;;6.30;99.90;;;;;;4960451;28;20424;-78
2021/03/10 04:15:03;;;;;;;20.73;15.63;;;6.20;99.90;;;;;;4978532;28;20650;-79
2021/03/10 04:17:28;;;;;;;24.50;15.50;;;6.00;99.90;;;;;;4976139;28;20220;-79
2021/03/10 04:19:54;;;;;;;21.27;15.33;;;5.90;99.90;;;;;;4962026;28;20425;-78
2021/03/10 04:22:19;;;;;;;23.03;15.97;;;6.10;99.90;;;;;;4961954;28;20192;-79
2021/03/10 04:24:45;;;;;;;23.90;16.67;;;6.10;99.90;;;;;;4962531;28;20173;-78
2021/03/10 04:27:11;;;;;;;21.63;17.27;;;6.10;99.90;;;;;;4978424;28;20193;-77
2021/03/10 04:29:36;;;;;;;21.43;18.20;;;6.10;99.90;;;;;;4955142;28;20205;-77
2021/03/10 04:32:02;;;;;;;28.53;18.00;;;6.20;99.90;;;;;;4972538;28;20499;-78
2021/03/10 04:34:27;;;;;;;25.03;18.63;;;5.90;99.90;;;;;;4955553;28;20722;-77
2021/03/10 04:36:53;;;;;;;23.70;18.43;;;6.10;99.90;;;;;;4972239;28;20543;-77
2021/03/10 04:39:18;;;;;;;29.10;19.40;;;6.20;99.90;;;;;;4971346;28;20179;-77
2021/03/10 04:41:44;;;;;;;23.43;18.20;;;6.20;99.90;;;;;;4954151;28;20224;-77
2021/03/10 04:44:10;;;;;;;22.33;17.90;;;6.20;99.90;;;;;;4970270;28;20211;-77
2021/03/10 04:46:35;;;;;;;24.73;18.20;;;6.00;99.90;;;;;;4979001;28;20208;-79
2021/03/10 04:49:01;;;;;;;26.40;17.87;;;5.90;99.90;;;;;;4974625;28;20873;-79
2021/03/10 04:51:26;;;;;;;28.20;18.50;;;6.10;99.90;;;;;;4977563;28;20296;-78
2021/03/10 04:53:52;;;;;;;22.13;17.43;;;6.10;99.90;;;;;;4959931;28;20284;-78
2021/03/10 04:56:17;;;;;;;26.70;18.10;;;6.20;99.90;;;;;;4979093;28;20631;-78
2021/03/10 04:58:43;;;;;;;25.53;17.07;;;6.30;99.90;;;;;;4962202;28;20209;-79
2021/03/10 05:01:08;;;;;;;24.80;17.10;;;6.30;99.90;;;;;;4974227;28;20213;-77
2021/03/10 05:03:34;;;;;;;22.83;17.07;;;6.30;99.90;;;;;;4971785;28;20240;-77
2021/03/10 05:05:59;;;;;;;22.70;16.63;;;6.40;99.90;;;;;;4970264;28;20186;-77
2021/03/10 05:08:25;;;;;;;20.63;15.83;;;6.40;99.90;;;;;;4967854;28;20215;-77
2021/03/10 05:10:50;;;;;;;23.10;16.00;;;6.40;99.90;;;;;;4969159;28;20701;-77
2021/03/10 05:13:16;;;;;;;27.13;16.17;;;6.40;99.90;;;;;;4972508;28;20631;-77
2021/03/10 05:15:41;;;;;;;20.67;17.70;;;6.40;99.90;;;;;;4970869;28;20178;-78
2021/03/10 05:18:07;;;;;;;22.07;17.87;;;6.30;99.90;;;;;;4972745;28;20198;-78
2021/03/10 05:20:32;;;;;;;26.23;18.57;;;6.30;99.90;;;;;;4973334;28;20189;-77
2021/03/10 05:22:58;;;;;;;22.50;18.07;;;6.20;99.90;;;;;;4958983;28;20173;-77
2021/03/10 05:25:23;;;;;;;25.63;18.30;;;6.20;99.90;;;;;;4975500;28;20197;-77
2021/03/10 05:27:49;;;;;;;24.67;18.30;;;6.10;99.90;;;;;;4975651;28;20205;-77
2021/03/10 05:30:16;;;;;;;27.43;17.87;;;6.20;99.90;;;;;;4974504;28;20201;-77
2021/03/10 05:32:41;;;;;;;27.47;19.80;;;6.20;99.90;;;;;;4973602;28;20178;-77
2021/03/10 05:35:08;;;;;;;38.43;20.57;;;5.90;99.90;;;;;;4975506;28;20928;-77
2021/03/10 05:37:33;;;;;;;25.83;19.57;;;6.00;99.90;;;;;;4982295;28;20239;-79
2021/03/10 05:39:59;;;;;;;29.57;21.27;;;6.00;99.90;;;;;;4963895;28;20491;-78
2021/03/10 05:42:24;;;;;;;24.13;16.87;;;6.00;99.90;;;;;;4982056;28;20248;-79
2021/03/10 05:44:51;;;;;;;25.07;18.60;;;6.00;99.90;;;;;;4962985;28;20177;-78
2021/03/10 05:47:20;;;;;;;23.60;17.43;;;6.10;99.90;;;;;;4963627;28;20268;-77
2021/03/10 05:49:47;;;;;;;24.70;18.70;;;6.20;99.90;;;;;;4970814;28;20463;-79
2021/03/10 05:52:13;;;;;;;23.87;18.37;;;6.20;99.90;;;;;;4974842;28;20854;-79
2021/03/10 05:54:42;;;;;;;22.90;18.03;;;6.30;99.90;;;;;;4964779;28;20433;-79
2021/03/10 05:57:08;;;;;;;25.40;18.33;;;6.30;99.90;;;;;;4964825;28;20457;-79
2021/03/10 05:59:34;;;;;;;25.20;18.43;;;6.40;99.90;;;;;;4981058;28;20464;-79
2021/03/10 06:02:00;;;;;;;28.40;19.53;;;6.30;99.90;;;;;;4958178;28;20178;-78
2021/03/10 06:04:40;;;;;;;26.30;19.07;;;6.20;99.90;;;;;;4973710;28;20583;-78
2021/03/10 06:07:21;;;;;;;26.17;19.13;;;6.20;99.90;;;;;;4968503;28;20231;-78
2021/03/10 06:10:05;;;;;;;29.83;20.00;;;6.20;99.90;;;;;;4961093;28;20495;-78
2021/03/10 06:12:45;;;;;;;27.23;18.73;;;6.20;99.90;;;;;;4978919;28;20843;-78
2021/03/10 06:15:12;;;;;;;33.33;20.97;;;6.10;99.90;;;;;;4978032;28;20942;-78
2021/03/10 06:17:48;;;;;;;29.90;21.27;;;6.10;99.90;;;;;;4976232;28;20857;-78
2021/03/10 06:20:28;;;;;;;33.37;20.40;;;6.10;99.90;;;;;;4961466;28;20538;-78
2021/03/10 06:22:54;;;;;;;27.07;19.93;;;6.20;99.90;;;;;;4977400;28;20440;-78
2021/03/10 06:25:24;;;;;;;27.50;20.47;;;6.20;99.90;;;;;;4975450;28;20464;-78
2021/03/10 06:27:51;;;;;;;26.17;18.80;;;6.20;99.90;;;;;;4977839;28;20452;-78
2021/03/10 06:30:18;;;;;;;27.40;19.50;;;6.20;99.90;;;;;;4961179;28;20448;-77
2021/03/10 06:32:44;;;;;;;34.17;23.60;;;6.20;99.90;;;;;;4976558;28;20460;-78
2021/03/10 06:35:10;;;;;;;27.27;19.50;;;6.20;99.90;;;;;;4978099;28;20429;-77
2021/03/10 06:37:35;;;;;;;27.60;21.23;;;6.20;99.90;;;;;;4971967;28;20995;-78
2021/03/10 06:40:14;;;;;;;33.13;21.47;;;6.20;99.90;;;;;;4971988;28;20437;-78
2021/03/10 06:42:40;;;;;;;31.40;19.50;;;6.20;99.90;;;;;;4973307;28;20188;-78
2021/03/10 06:45:07;;;;;;;32.50;20.40;;;6.10;99.90;;;;;;4972327;28;20520;-78
2021/03/10 06:47:37;;;;;;;34.33;21.50;;;6.00;99.90;;;;;;4955503;28;20456;-77
2021/03/10 06:50:05;;;;;;;30.97;21.30;;;6.00;99.90;;;;;;4974149;28;20448;-78
2021/03/10 06:52:30;;;;;;;28.27;18.67;;;5.80;99.90;;;;;;4972847;28;20829;-77
2021/03/10 06:54:58;;;;;;;30.30;20.80;;;5.80;99.90;;;;;;4973740;28;20448;-77
2021/03/10 06:57:25;;;;;;;31.93;19.60;;;5.90;99.90;;;;;;4955908;28;20205;-78
2021/03/10 06:59:56;;;;;;;34.90;19.90;;;5.90;99.90;;;;;;4959795;28;20429;-78
2021/03/10 07:02:29;;;;;;;28.77;19.20;;;5.90;99.90;;;;;;4976211;28;20503;-78
2021/03/10 07:04:56;;;;;;;30.47;19.20;;;5.90;99.90;;;;;;4976872;28;20460;-78
2021/03/10 07:07:23;;;;;;;31.50;18.83;;;5.90;99.90;;;;;;4974896;28;20846;-78
2021/03/10 07:09:49;;;;;;;27.83;19.00;;;6.00;99.90;;;;;;4953597;28;20486;-77
2021/03/10 07:12:16;;;;;;;30.30;19.60;;;6.00;99.90;;;;;;4953345;28;20441;-77
2021/03/10 07:14:43;;;;;;;31.67;18.80;;;6.00;99.90;;;;;;4974280;28;20193;-78
2021/03/10 07:17:15;;;;;;;27.00;19.07;;;6.00;99.90;;;;;;4957253;28;20460;-77
2021/03/10 07:19:42;;;;;;;29.97;19.40;;;6.00;99.90;;;;;;4974390;28;20790;-77
2021/03/10 07:22:10;;;;;;;31.50;21.23;;;6.00;99.90;;;;;;4972856;28;20524;-78
2021/03/10 07:24:50;;;;;;;30.57;19.50;;;6.00;99.90;;;;;;4970865;28;20452;-78
2021/03/10 07:27:18;;;;;;;33.33;20.60;;;6.10;99.90;;;;;;4970680;28;20519;-78
2021/03/10 07:29:44;;;;;;;30.87;20.13;;;6.20;99.90;;;;;;4972780;28;20797;-77
2021/03/10 07:32:10;;;;;;;31.90;20.10;;;6.30;99.90;;;;;;4974004;28;20447;-77
2021/03/10 07:34:37;;;;;;;32.07;20.43;;;6.30;99.90;;;;;;4973641;28;20178;-77
2021/03/10 07:37:13;;;;;;;28.87;20.17;;;6.40;99.90;;;;;;4974008;28;20211;-77
2021/03/10 07:39:38;;;;;;;31.40;20.80;;;6.40;99.90;;;;;;4973288;28;21001;-77
2021/03/10 07:42:13;;;;;;;37.97;20.60;;;6.50;99.90;;;;;;4973240;28;20436;-77
2021/03/10 07:44:39;;;;;;;27.03;19.00;;;6.50;99.90;;;;;;4972388;28;20181;-77
2021/03/10 07:47:13;;;;;;;31.20;20.80;;;6.40;99.90;;;;;;4972164;28;20467;-77
2021/03/10 07:49:41;;;;;;;40.33;22.60;;;6.50;99.90;;;;;;4973788;28;20232;-77
2021/03/10 07:52:10;;;;;;;35.30;20.47;;;6.50;99.90;;;;;;4972663;28;20440;-77
2021/03/10 07:54:38;;;;;;;35.90;20.40;;;6.60;99.90;;;;;;4955550;28;20475;-77
2021/03/10 07:57:10;;;;;;;32.30;20.37;;;6.50;99.90;;;;;;4973112;28;20457;-77
2021/03/10 07:59:53;;;;;;;35.67;20.50;;;6.50;99.90;;;;;;4956753;28;20452;-77
2021/03/10 08:02:19;;;;;;;34.40;21.50;;;6.60;99.90;;;;;;4969881;28;20439;-77
2021/03/10 08:04:53;;;;;;;30.53;21.50;;;6.50;99.90;;;;;;4955158;28;20525;-77
2021/03/10 08:07:23;;;;;;;31.43;19.93;;;6.60;99.90;;;;;;4972820;28;20295;-77
2021/03/10 08:09:53;;;;;;;31.70;20.40;;;6.50;99.90;;;;;;4970913;28;20507;-77
2021/03/10 08:12:30;;;;;;;30.17;20.90;;;6.60;99.90;;;;;;4973634;28;20528;-77
2021/03/10 08:14:56;;;;;;;32.83;19.80;;;6.50;99.90;;;;;;4968987;28;20493;-77
2021/03/10 08:17:24;;;;;;;29.23;20.10;;;6.50;99.90;;;;;;4971912;28;20954;-77
2021/03/10 08:19:58;;;;;;;29.53;19.83;;;6.70;99.90;;;;;;4973009;28;20796;-77
2021/03/10 08:22:25;;;;;;;31.60;21.17;;;6.60;99.90;;;;;;4973614;28;20438;-77
2021/03/10 08:24:59;;;;;;;29.20;19.90;;;6.60;99.90;;;;;;4973732;28;20945;-77
2021/03/10 08:27:36;;;;;;;34.90;21.60;;;6.70;99.90;;;;;;4955934;28;20462;-77
2021/03/10 08:30:05;;;;;;;32.13;22.37;;;6.80;99.90;;;;;;4971687;28;20452;-77
2021/03/10 08:32:31;;;;;;;42.07;22.17;;;6.90;99.90;;;;;;4955816;28;20439;-77
2021/03/10 08:35:19;;;;;;;31.20;22.10;;;6.90;99.90;;;;;;4967024;28;20436;-77
2021/03/10 08:37:56;;;;;;;35.63;20.47;;;7.00;99.90;;;;;;4971300;28;20448;-77
2021/03/10 08:40:25;;;;;;;38.10;22.13;;;7.10;99.90;;;;;;4955386;28;20530;-77
2021/03/10 08:42:50;;;;;;;37.93;24.00;;;7.10;99.90;;;;;;4974757;28;20456;-79
2021/03/10 08:45:30;;;;;;;39.73;21.40;;;7.10;99.90;;;;;;4958922;28;20433;-79
2021/03/10 08:48:15;;;;;;;37.77;21.47;;;7.20;99.90;;;;;;4976578;28;20197;-81
2021/03/10 08:51:20;;;;;;;36.63;21.60;;;7.20;99.90;;;;;;4959153;28;20476;-80
2021/03/10 08:53:52;;;;;;;37.40;23.60;;;7.20;99.90;;;;;;4971154;28;20451;-82
2021/03/10 09:04:21;;;;;;;37.90;22.60;;;7.60;99.90;;;;;;4799988;29;20899;-83
2021/03/10 09:06:58;;;;;;;38.23;24.43;;;7.80;99.90;;;;;;4779985;29;20482;-82
2021/03/10 09:09:32;;;;;;;37.00;22.17;;;7.90;99.90;;;;;;4874743;29;20434;-82
2021/03/10 09:12:21;;;;;;;37.40;22.90;;;8.00;99.90;;;;;;4964637;28;21033;-82
2021/03/10 09:15:00;;;;;;;38.23;23.90;;;8.10;99.90;;;;;;4977504;28;20615;-82
2021/03/10 09:17:37;;;;;;;39.00;23.10;;;8.10;99.90;;;;;;4977928;28;20515;-82
2021/03/10 09:20:06;;;;;;;35.73;22.90;;;8.20;99.90;;;;;;4976495;28;20455;-82
2021/03/10 09:22:41;;;;;;;36.37;23.27;;;8.30;99.90;;;;;;4978571;28;20440;-82
2021/03/10 09:25:10;;;;;;;37.23;23.97;;;8.30;99.90;;;;;;4979073;28;20409;-82
2021/03/10 09:27:36;;;;;;;39.27;24.73;;;8.30;99.90;;;;;;4977202;28;20499;-82
2021/03/10 09:30:13;;;;;;;39.60;22.87;;;8.40;99.90;;;;;;4960564;28;20981;-82
2021/03/10 09:32:46;;;;;;;37.67;25.47;;;8.50;99.90;;;;;;4960405;28;20436;-82
2021/03/10 09:35:19;;;;;;;36.50;24.50;;;8.60;99.90;;;;;;4978557;28;21125;-82
2021/03/10 09:37:46;;;;;;;35.53;24.30;;;8.60;99.90;;;;;;4978330;28;20457;-82
2021/03/10 09:40:12;;;;;;;31.50;23.27;;;8.70;99.90;;;;;;4961405;28;20441;-82
2021/03/10 09:42:38;;;;;;;34.23;22.43;;;8.80;99.90;;;;;;4961747;28;20472;-81
2021/03/10 09:45:04;;;;;;;34.90;23.80;;;8.90;99.90;;;;;;4977876;28;20452;-82
2021/03/10 09:47:29;;;;;;;41.23;24.90;;;9.00;99.90;;;;;;4976880;28;20225;-82
2021/03/10 09:49:57;;;;;;;28.03;20.77;;;9.00;99.90;;;;;;4959797;28;20558;-82
2021/03/10 09:52:38;;;;;;;30.87;21.73;;;9.20;99.90;;;;;;4959100;28;20224;-82
2021/03/10 09:55:08;;;;;;;31.53;21.20;;;9.30;99.90;;;;;;4976667;28;20428;-82
2021/03/10 09:57:34;;;;;;;33.30;24.07;;;9.30;99.90;;;;;;4949335;28;20441;-81
2021/03/10 09:59:59;;;;;;;33.03;20.73;;;9.30;99.90;;;;;;4960890;28;20443;-82
2021/03/10 10:02:26;;;;;;;33.83;21.67;;;9.40;99.90;;;;;;4962074;28;20188;-81
2021/03/10 10:05:10;;;;;;;32.93;21.13;;;9.30;99.90;;;;;;4980121;28;20182;-81
2021/03/10 10:07:36;;;;;;;31.00;21.67;;;9.50;99.90;;;;;;4962293;28;21028;-81
2021/03/10 10:10:02;;;;;;;30.83;19.60;;;9.50;99.90;;;;;;4962623;28;20456;-81
2021/03/10 10:12:27;;;;;;;28.37;20.67;;;9.60;99.90;;;;;;4963603;28;20177;-81
2021/03/10 10:14:53;;;;;;;30.50;20.80;;;9.70;99.90;;;;;;4964451;28;20237;-81
2021/03/10 10:17:18;;;;;;;36.13;21.03;;;9.90;99.90;;;;;;4963077;28;20197;-81
2021/03/10 10:19:44;;;;;;;27.50;18.97;;;10.20;99.90;;;;;;4979587;28;20192;-81
2021/03/10 10:22:10;;;;;;;27.57;18.47;;;10.40;99.90;;;;;;4962439;28;20188;-81
2021/03/10 10:24:36;;;;;;;23.57;17.97;;;10.60;99.90;;;;;;4963251;28;20256;-81
2021/03/10 10:27:02;;;;;;;22.30;16.50;;;11.00;99.90;;;;;;4978739;28;20460;-81
2021/03/10 10:29:27;;;;;;;20.50;16.10;;;10.90;99.90;;;;;;4962764;28;20440;-80
2021/03/10 10:31:53;;;;;;;23.50;16.93;;;11.10;99.90;;;;;;4962935;28;20433;-81
2021/03/10 10:34:19;;;;;;;20.60;16.37;;;11.30;99.90;;;;;;4962890;28;20270;-81
2021/03/10 10:36:45;;;;;;;24.00;16.90;;;11.30;99.90;;;;;;4979847;28;20195;-80
2021/03/10 10:39:10;;;;;;;22.10;16.97;;;11.70;99.90;;;;;;4963120;28;20287;-80
2021/03/10 10:41:36;;;;;;;23.90;16.13;;;11.90;99.90;;;;;;4962481;28;20264;-80
2021/03/10 10:44:01;;;;;;;23.67;17.33;;;12.00;99.90;;;;;;4963757;28;20177;-80
2021/03/10 10:46:27;;;;;;;23.83;16.93;;;11.90;99.90;;;;;;4963443;28;20201;-80
2021/03/10 10:48:52;;;;;;;20.53;16.20;;;11.90;99.90;;;;;;4979424;28;20189;-80
2021/03/10 10:51:21;;;;;;;24.43;17.00;;;11.90;99.90;;;;;;4962899;28;20209;-80
2021/03/10 10:53:48;;;;;;;23.20;16.37;;;11.60;99.90;;;;;;4963662;28;20200;-81
2021/03/10 10:56:13;;;;;;;23.73;15.63;;;11.40;99.90;;;;;;4979093;28;20440;-80
2021/03/10 10:58:39;;;;;;;17.87;14.47;;;11.50;99.90;;;;;;4961450;28;20436;-80
2021/03/10 11:01:04;;;;;;;24.87;16.57;;;11.60;99.90;;;;;;4979997;28;20261;-80
2021/03/10 11:03:30;;;;;;;29.67;14.40;;;11.70;99.90;;;;;;4977911;28;20182;-80
2021/03/10 11:05:56;;;;;;;16.93;13.43;;;12.00;99.90;;;;;;4978615;28;20245;-80
2021/03/10 11:08:21;;;;;;;15.40;12.43;;;11.80;99.90;;;;;;4977770;28;20188;-80
2021/03/10 11:10:47;;;;;;;17.70;12.83;;;11.80;99.90;;;;;;4961517;28;20217;-80
2021/03/10 11:13:12;;;;;;;13.70;10.40;;;11.90;99.90;;;;;;4962498;28;20678;-80
2021/03/10 11:15:38;;;;;;;13.80;11.03;;;12.00;99.90;;;;;;4962411;28;20170;-81
2021/03/10 11:18:04;;;;;;;16.53;10.87;;;12.00;99.90;;;;;;4960030;28;20724;-80
2021/03/10 11:20:29;;;;;;;14.70;10.53;;;11.90;99.90;;;;;;4978658;28;20588;-80
2021/03/10 11:22:55;;;;;;;11.80;10.13;;;12.20;99.90;;;;;;4980213;28;20185;-80
2021/03/10 11:25:20;;;;;;;11.17;9.70;;;11.90;99.90;;;;;;4962266;28;20185;-80
2021/03/10 11:27:46;;;;;;;13.30;9.40;;;12.00;99.90;;;;;;4961231;28;20209;-80
2021/03/10 11:30:12;;;;;;;12.77;9.10;;;11.90;99.90;;;;;;4961943;28;20205;-81
2021/03/10 11:32:38;;;;;;;14.63;10.17;;;12.10;99.90;;;;;;4962554;28;20182;-81
2021/03/10 11:35:06;;;;;;;14.33;9.60;;;12.10;99.90;;;;;;4980040;28;20936;-81
2021/03/10 11:37:32;;;;;;;14.13;9.30;;;12.20;99.90;;;;;;4961311;28;20201;-80
2021/03/10 11:39:57;;;;;;;17.77;10.73;;;12.30;99.90;;;;;;4961059;28;20455;-80
2021/03/10 11:42:24;;;;;;;10.90;9.00;;;12.40;99.90;;;;;;4979404;28;20614;-80
2021/03/10 11:44:49;;;;;;;10.10;8.20;;;12.60;99.90;;;;;;4979652;28;20187;-80
2021/03/10 11:47:15;;;;;;;6.90;5.90;;;12.90;99.90;;;;;;4961451;28;20551;-80
2021/03/10 11:49:41;;;;;;;8.30;6.70;;;12.90;99.90;;;;;;4960946;28;20209;-81
2021/03/10 11:52:06;;;;;;;8.40;6.47;;;12.80;99.90;;;;;;4962081;28;20225;-80
2021/03/10 11:54:32;;;;;;;8.07;6.70;;;13.20;99.90;;;;;;4978900;28;20420;-80
2021/03/10 11:56:58;;;;;;;10.73;7.63;;;13.50;99.90;;;;;;4978451;28;20285;-80
2021/03/10 11:59:23;;;;;;;9.13;7.50;;;13.60;99.90;;;;;;4962519;28;20185;-80
2021/03/10 12:01:49;;;;;;;8.40;6.73;;;13.10;99.90;;;;;;4962236;28;20185;-80
2021/03/10 12:04:14;;;;;;;8.37;6.87;;;12.80;99.90;;;;;;4961722;28;20694;-80
2021/03/10 12:06:40;;;;;;;7.57;6.60;;;13.00;99.90;;;;;;4961133;28;20292;-80
2021/03/10 12:09:06;;;;;;;9.27;7.30;;;13.10;99.90;;;;;;4978278;28;20742;-80
2021/03/10 12:11:32;;;;;;;10.53;7.13;;;13.30;99.90;;;;;;4961875;28;20213;-81
2021/03/10 12:13:57;;;;;;;8.40;7.47;;;13.10;99.90;;;;;;4962880;28;20508;-80
2021/03/10 12:16:23;;;;;;;7.63;6.10;;;13.20;99.90;;;;;;4978574;28;20441;-80
2021/03/10 12:18:48;;;;;;;10.87;7.83;;;13.20;99.90;;;;;;4960606;28;20177;-81
2021/03/10 12:21:14;;;;;;;12.00;8.23;;;13.60;99.90;;;;;;4962107;28;20241;-80
2021/03/10 12:23:40;;;;;;;14.07;10.10;;;13.50;99.90;;;;;;4979514;28;20213;-81
2021/03/10 12:26:05;;;;;;;10.97;8.50;;;13.30;99.90;;;;;;4962102;28;20184;-81
2021/03/10 12:28:31;;;;;;;12.53;9.77;;;12.80;99.90;;;;;;4957511;28;21007;-81
2021/03/10 12:30:57;;;;;;;10.20;8.73;;;13.00;99.90;;;;;;4941748;29;20574;-81
2021/03/10 12:33:22;;;;;;;10.27;9.00;;;13.10;99.90;;;;;;4958580;28;20707;-81
2021/03/10 12:35:48;;;;;;;12.10;8.87;;;13.00;99.90;;;;;;4977532;28;20492;-80
2021/03/10 12:38:14;;;;;;;8.50;7.70;;;13.10;99.90;;;;;;4979413;28;20208;-81
2021/03/10 12:40:39;;;;;;;9.10;7.40;;;13.30;99.90;;;;;;4960895;28;20185;-80
2021/03/10 12:43:05;;;;;;;10.23;7.97;;;13.50;99.90;;;;;;4978401;28;20184;-81
2021/03/10 12:45:30;;;;;;;11.83;7.90;;;13.40;99.90;;;;;;4978505;28;20213;-81
2021/03/10 12:47:56;;;;;;;10.90;8.13;;;13.50;99.90;;;;;;4973545;28;20209;-80
2021/03/10 12:50:21;;;;;;;8.83;7.37;;;13.60;99.90;;;;;;4971668;28;20304;-80
2021/03/10 12:52:47;;;;;;;10.67;8.00;;;13.70;99.90;;;;;;4972900;28;20221;-81